sensor_id;sensor_type;location;lat;lon;timestamp;temperature;humidity
3406;DHT22;10008;48.682;9.016;2022-11-30T00:00:54;6.70;99.90
3406;DHT22;10008;48.682;9.016;2022-11-30T00:03:19;6.70;99.90
3406;DHT22;10008;48.682;9.016;2022-11-30T00:05:45;6.70;99.90
3406;DHT22;10008;48.682;9.016;2022-11-30T00:08:11;6.70;99.90
3406;DHT22;10008;48.682;9.016;2022-11-30T00:10:38;6.60;99.90
3406;DHT22;10008;48.682;9.016;2022-11-30T00:13:04;6.60;99.90
3406;DHT22;10008;48.682;9.016;2022-11-30T00:15:29;6.60;99.90
3406;DHT22;10008;48.682;9.016;2022-11-30T00:17:56;6.60;99.90
3406;DHT22;10008;48.682;9.016;2022-11-30T00:20:22;6.60;99.90
3406;DHT22;10008;48.682;9.016;2022-11-30T00:22:47;6.60;99.90
3406;DHT22;10008;48.682;9.016;2022-11-30T00:25:13;6.50;99.90
3406;DHT22;10008;48.682;9.016;2022-11-30T00:27:39;6.60;99.90
3406;DHT22;10008;48.682;9.016;2022-11-30T00:30:05;6.60;99.90
3406;DHT22;10008;48.682;9.016;2022-11-30T00:32:31;6.60;99.90
3406;DHT22;10008;48.682;9.016;2022-11-30T00:34:58;6.60;99.90
3406;DHT22;10008;48.682;9.016;2022-11-30T00:37:23;6.50;99.90
3406;DHT22;10008;48.682;9.016;2022-11-30T00:39:49;6.50;99.90
3406;DHT22;10008;48.682;9.016;2022-11-30T00:42:15;6.50;99.90
3406;DHT22;10008;48.682;9.016;2022-11-30T00:44:40;6.50;99.90
3406;DHT22;10008;48.682;9.016;2022-11-30T00:47:06;6.50;99.90
3406;DHT22;10008;48.682;9.016;2022-11-30T00:49:32;6.60;99.90
3406;DHT22;10008;48.682;9.016;2022-11-30T00:51:59;6.50;99.90
3406;DHT22;10008;48.682;9.016;2022-11-30T00:54:25;6.50;99.90
3406;DHT22;10008;48.682;9.016;2022-11-30T00:56:50;6.60;99.90
3406;DHT22;10008;48.682;9.016;2022-11-30T00:59:16;6.60;99.90
3406;DHT22;10008;48.682;9.016;2022-11-30T01:01:42;6.60;99.90
3406;DHT22;10008;48.682;9.016;2022-11-30T01:04:08;6.60;99.90
3406;DHT22;10008;48.682;9.016;2022-11-30T01:06:33;6.50;99.90
3406;DHT22;10008;48.682;9.016;2022-11-30T01:08:59;6.50;99.90
3406;DHT22;10008;48.682;9.016;2022-11-30T01:11:29;6.50;99.90
3406;DHT22;10008;48.682;9.016;2022-11-30T01:13:57;6.40;99.90
3406;DHT22;10008;48.682;9.016;2022-11-30T01:16:27;6.50;99.90
3406;DHT22;10008;48.682;9.016;2022-11-30T01:18:53;6.50;99.90
3406;DHT22;10008;48.682;9.016;2022-11-30T01:21:21;6.50;99.90
3406;DHT22;10008;48.682;9.016;2022-11-30T01:23:48;6.50;99.90
3406;DHT22;10008;48.682;9.016;2022-11-30T01:26:14;6.50;99.90
3406;DHT22;10008;48.682;9.016;2022-11-30T01:28:40;6.50;99.90
3406;DHT22;10008;48.682;9.016;2022-11-30T01:31:10;6.40;99.90
3406;DHT22;10008;48.682;9.016;2022-11-30T01:33:36;6.40;99.90
3406;DHT22;10008;48.682;9.016;2022-11-30T01:36:10;6.40;99.90
3406;DHT22;10008;48.682;9.016;2022-11-30T01:38:39;6.30;99.90
3406;DHT22;10008;48.682;9.016;2022-11-30T01:41:06;6.30;99.90
3406;DHT22;10008;48.682;9.016;2022-11-30T01:43:41;6.40;99.90
3406;DHT22;10008;48.682;9.016;2022-11-30T01:46:35;6.40;99.90
3406;DHT22;10008;48.682;9.016;2022-11-30T01:49:13;6.40;99.90
3406;DHT22;10008;48.682;9.016;2022-11-30T01:51:55;6.40;99.90
3406;DHT22;10008;48.682;9.016;2022-11-30T01:54:27;6.50;99.90
3406;DHT22;10008;48.682;9.016;2022-11-30T01:56:58;6.40;99.90
3406;DHT22;10008;48.682;9.016;2022-11-30T01:59:25;6.50;99.90
3406;DHT22;10008;48.682;9.016;2022-11-30T02:01:51;6.50;99.90
3406;DHT22;10008;48.682;9.016;2022-11-30T02:04:21;6.50;99.90
3406;DHT22;10008;48.682;9.016;2022-11-30T02:06:49;6.60;99.90
3406;DHT22;10008;48.682;9.016;2022-11-30T02:09:17;6.50;99.90
3406;DHT22;10008;48.682;9.016;2022-11-30T02:11:44;6.50;99.90
3406;DHT22;10008;48.682;9.016;2022-11-30T02:14:17;6.50;99.90
3406;DHT22;10008;48.682;9.016;2022-11-30T02:17:25;6.50;99.90
3406;DHT22;10008;48.682;9.016;2022-11-30T02:29:01;6.40;99.90
3406;DHT22;10008;48.682;9.016;2022-11-30T02:31:11;6.40;99.90
3406;DHT22;10008;48.682;9.016;2022-11-30T02:33:39;6.40;99.90
3406;DHT22;10008;48.682;9.016;2022-11-30T02:36:07;6.40;99.90
3406;DHT22;10008;48.682;9.016;2022-11-30T02:38:34;6.40;99.90
3406;DHT22;10008;48.682;9.016;2022-11-30T02:41:00;6.40;99.90
3406;DHT22;10008;48.682;9.016;2022-11-30T02:43:27;6.30;99.90
3406;DHT22;10008;48.682;9.016;2022-11-30T02:49:07;6.40;99.90
3406;DHT22;10008;48.682;9.016;2022-11-30T02:51:37;6.40;99.90
3406;DHT22;10008;48.682;9.016;2022-11-30T02:54:04;6.30;99.90
3406;DHT22;10008;48.682;9.016;2022-11-30T02:56:30;6.30;99.90
3406;DHT22;10008;48.682;9.016;2022-11-30T02:58:56;6.30;99.90
3406;DHT22;10008;48.682;9.016;2022-11-30T03:01:23;6.30;99.90
3406;DHT22;10008;48.682;9.016;2022-11-30T03:03:49;6.40;99.90
3406;DHT22;10008;48.682;9.016;2022-11-30T03:06:14;6.40;99.90
3406;DHT22;10008;48.682;9.016;2022-11-30T03:08:40;6.40;99.90
3406;DHT22;10008;48.682;9.016;2022-11-30T03:11:06;6.40;99.90
3406;DHT22;10008;48.682;9.016;2022-11-30T03:13:32;6.50;99.90
3406;DHT22;10008;48.682;9.016;2022-11-30T03:16:05;6.50;99.90
3406;DHT22;10008;48.682;9.016;2022-11-30T03:18:31;6.40;99.90
3406;DHT22;10008;48.682;9.016;2022-11-30T03:20:57;6.30;99.90
3406;DHT22;10008;48.682;9.016;2022-11-30T03:23:23;6.60;99.90
3406;DHT22;10008;48.682;9.016;2022-11-30T03:25:48;6.40;99.90
3406;DHT22;10008;48.682;9.016;2022-11-30T03:28:14;6.40;99.90
3406;DHT22;10008;48.682;9.016;2022-11-30T03:30:40;6.40;99.90
3406;DHT22;10008;48.682;9.016;2022-11-30T03:33:06;6.40;99.90
3406;DHT22;10008;48.682;9.016;2022-11-30T03:35:31;6.40;99.90
3406;DHT22;10008;48.682;9.016;2022-11-30T03:37:57;6.40;99.90
3406;DHT22;10008;48.682;9.016;2022-11-30T03:40:23;6.40;99.90
3406;DHT22;10008;48.682;9.016;2022-11-30T03:42:48;6.40;99.90
3406;DHT22;10008;48.682;9.016;2022-11-30T03:45:14;6.40;99.90
3406;DHT22;10008;48.682;9.016;2022-11-30T03:47:40;6.40;99.90
3406;DHT22;10008;48.682;9.016;2022-11-30T03:50:06;7.50;99.90
3406;DHT22;10008;48.682;9.016;2022-11-30T03:52:32;6.50;99.90
3406;DHT22;10008;48.682;9.016;2022-11-30T03:54:58;6.50;99.90
3406;DHT22;10008;48.682;9.016;2022-11-30T03:57:23;6.50;99.90
3406;DHT22;10008;48.682;9.016;2022-11-30T03:59:49;6.50;99.90
3406;DHT22;10008;48.682;9.016;2022-11-30T04:02:15;6.40;99.90
3406;DHT22;10008;48.682;9.016;2022-11-30T04:04:40;6.40;99.90
3406;DHT22;10008;48.682;9.016;2022-11-30T04:07:06;6.40;99.90
3406;DHT22;10008;48.682;9.016;2022-11-30T04:09:32;6.40;99.90
3406;DHT22;10008;48.682;9.016;2022-11-30T04:11:57;6.40;99.90
3406;DHT22;10008;48.682;9.016;2022-11-30T04:14:23;6.30;99.90
3406;DHT22;10008;48.682;9.016;2022-11-30T04:16:49;6.30;99.90
3406;DHT22;10008;48.682;9.016;2022-11-30T04:19:15;6.30;99.90
3406;DHT22;10008;48.682;9.016;2022-11-30T04:21:40;6.30;99.90
3406;DHT22;10008;48.682;9.016;2022-11-30T04:24:07;6.30;99.90
3406;DHT22;10008;48.682;9.016;2022-11-30T04:26:32;6.30;99.90
3406;DHT22;10008;48.682;9.016;2022-11-30T04:28:58;6.30;99.90
3406;DHT22;10008;48.682;9.016;2022-11-30T04:31:24;6.30;99.90
3406;DHT22;10008;48.682;9.016;2022-11-30T04:33:53;6.40;99.90
3406;DHT22;10008;48.682;9.016;2022-11-30T04:36:19;6.50;99.90
3406;DHT22;10008;48.682;9.016;2022-11-30T04:38:46;6.60;99.90
3406;DHT22;10008;48.682;9.016;2022-11-30T04:41:12;6.50;99.90
3406;DHT22;10008;48.682;9.016;2022-11-30T04:43:37;6.50;99.90
3406;DHT22;10008;48.682;9.016;2022-11-30T04:46:04;6.50;99.90
3406;DHT22;10008;48.682;9.016;2022-11-30T04:48:30;6.40;99.90
3406;DHT22;10008;48.682;9.016;2022-11-30T04:51:03;6.40;99.90
3406;DHT22;10008;48.682;9.016;2022-11-30T04:53:31;6.60;99.90
3406;DHT22;10008;48.682;9.016;2022-11-30T04:55:57;6.50;99.90
3406;DHT22;10008;48.682;9.016;2022-11-30T04:58:22;6.40;99.90
3406;DHT22;10008;48.682;9.016;2022-11-30T05:00:48;6.50;99.90
3406;DHT22;10008;48.682;9.016;2022-11-30T05:03:14;6.50;99.90
3406;DHT22;10008;48.682;9.016;2022-11-30T05:05:40;6.60;99.90
3406;DHT22;10008;48.682;9.016;2022-11-30T05:08:05;6.60;99.90
3406;DHT22;10008;48.682;9.016;2022-11-30T05:10:31;6.50;99.90
3406;DHT22;10008;48.682;9.016;2022-11-30T05:12:58;6.50;99.90
3406;DHT22;10008;48.682;9.016;2022-11-30T05:15:24;6.40;99.90
3406;DHT22;10008;48.682;9.016;2022-11-30T05:17:50;6.40;99.90
3406;DHT22;10008;48.682;9.016;2022-11-30T05:20:16;6.40;99.90
3406;DHT22;10008;48.682;9.016;2022-11-30T05:22:42;6.40;99.90
3406;DHT22;10008;48.682;9.016;2022-11-30T05:25:08;6.40;99.90
3406;DHT22;10008;48.682;9.016;2022-11-30T05:27:35;6.40;99.90
3406;DHT22;10008;48.682;9.016;2022-11-30T05:30:01;6.50;99.90
3406;DHT22;10008;48.682;9.016;2022-11-30T05:32:27;6.50;99.90
3406;DHT22;10008;48.682;9.016;2022-11-30T05:34:53;6.60;99.90
3406;DHT22;10008;48.682;9.016;2022-11-30T05:37:19;6.50;99.90
3406;DHT22;10008;48.682;9.016;2022-11-30T05:39:44;6.50;99.90
3406;DHT22;10008;48.682;9.016;2022-11-30T05:42:10;6.50;99.90
3406;DHT22;10008;48.682;9.016;2022-11-30T05:44:36;6.50;99.90
3406;DHT22;10008;48.682;9.016;2022-11-30T05:47:02;6.40;99.90
3406;DHT22;10008;48.682;9.016;2022-11-30T05:49:27;6.50;99.90
3406;DHT22;10008;48.682;9.016;2022-11-30T05:51:53;6.40;99.90
3406;DHT22;10008;48.682;9.016;2022-11-30T05:54:19;6.50;99.90
3406;DHT22;10008;48.682;9.016;2022-11-30T05:56:44;6.50;99.90
3406;DHT22;10008;48.682;9.016;2022-11-30T05:59:10;6.50;99.90
3406;DHT22;10008;48.682;9.016;2022-11-30T06:01:36;6.50;99.90
3406;DHT22;10008;48.682;9.016;2022-11-30T06:04:05;6.50;99.90
3406;DHT22;10008;48.682;9.016;2022-11-30T06:06:31;6.50;99.90
3406;DHT22;10008;48.682;9.016;2022-11-30T06:08:57;6.50;99.90
3406;DHT22;10008;48.682;9.016;2022-11-30T06:11:22;6.50;99.90
3406;DHT22;10008;48.682;9.016;2022-11-30T06:13:48;6.60;99.90
3406;DHT22;10008;48.682;9.016;2022-11-30T06:16:14;6.60;99.90
3406;DHT22;10008;48.682;9.016;2022-11-30T06:18:40;6.50;99.90
3406;DHT22;10008;48.682;9.016;2022-11-30T06:21:08;6.60;99.90
3406;DHT22;10008;48.682;9.016;2022-11-30T06:23:34;6.70;99.90
3406;DHT22;10008;48.682;9.016;2022-11-30T06:26:09;6.70;99.90
3406;DHT22;10008;48.682;9.016;2022-11-30T06:28:36;6.60;99.90
3406;DHT22;10008;48.682;9.016;2022-11-30T06:31:04;6.60;99.90
3406;DHT22;10008;48.682;9.016;2022-11-30T06:33:30;6.70;99.90
3406;DHT22;10008;48.682;9.016;2022-11-30T06:35:56;6.60;99.90
3406;DHT22;10008;48.682;9.016;2022-11-30T06:38:22;6.70;99.90
3406;DHT22;10008;48.682;9.016;2022-11-30T06:40:48;6.70;99.90
3406;DHT22;10008;48.682;9.016;2022-11-30T06:43:14;6.70;99.90
3406;DHT22;10008;48.682;9.016;2022-11-30T06:45:44;6.80;99.90
3406;DHT22;10008;48.682;9.016;2022-11-30T06:48:11;6.80;99.90
3406;DHT22;10008;48.682;9.016;2022-11-30T06:50:37;6.70;99.90
3406;DHT22;10008;48.682;9.016;2022-11-30T06:53:03;6.70;99.90
3406;DHT22;10008;48.682;9.016;2022-11-30T06:55:29;6.70;99.90
3406;DHT22;10008;48.682;9.016;2022-11-30T06:58:11;6.70;99.90
3406;DHT22;10008;48.682;9.016;2022-11-30T07:00:37;6.70;99.90
3406;DHT22;10008;48.682;9.016;2022-11-30T07:03:04;6.70;99.90
3406;DHT22;10008;48.682;9.016;2022-11-30T07:05:33;6.60;99.90
3406;DHT22;10008;48.682;9.016;2022-11-30T07:08:04;6.60;99.90
3406;DHT22;10008;48.682;9.016;2022-11-30T07:10:29;6.60;99.90
3406;DHT22;10008;48.682;9.016;2022-11-30T07:12:55;6.60;99.90
3406;DHT22;10008;48.682;9.016;2022-11-30T07:15:21;6.70;99.90
3406;DHT22;10008;48.682;9.016;2022-11-30T07:17:47;6.80;99.90
3406;DHT22;10008;48.682;9.016;2022-11-30T07:20:13;6.70;99.90
3406;DHT22;10008;48.682;9.016;2022-11-30T07:22:38;6.70;99.90
3406;DHT22;10008;48.682;9.016;2022-11-30T07:25:05;6.80;99.90
3406;DHT22;10008;48.682;9.016;2022-11-30T07:27:49;6.90;99.90
3406;DHT22;10008;48.682;9.016;2022-11-30T07:30:15;6.90;99.90
3406;DHT22;10008;48.682;9.016;2022-11-30T07:32:41;7.00;99.90
3406;DHT22;10008;48.682;9.016;2022-11-30T07:35:07;7.10;99.90
3406;DHT22;10008;48.682;9.016;2022-11-30T07:37:32;7.10;99.90
3406;DHT22;10008;48.682;9.016;2022-11-30T07:39:58;7.20;99.90
3406;DHT22;10008;48.682;9.016;2022-11-30T07:42:24;7.20;99.90
3406;DHT22;10008;48.682;9.016;2022-11-30T07:44:50;7.30;99.90
3406;DHT22;10008;48.682;9.016;2022-11-30T07:47:16;7.30;99.90
3406;DHT22;10008;48.682;9.016;2022-11-30T07:49:42;7.40;99.90
3406;DHT22;10008;48.682;9.016;2022-11-30T07:52:08;7.50;99.90
3406;DHT22;10008;48.682;9.016;2022-11-30T07:54:34;7.50;99.90
3406;DHT22;10008;48.682;9.016;2022-11-30T07:56:59;7.40;99.90
3406;DHT22;10008;48.682;9.016;2022-11-30T07:59:25;7.50;99.90
3406;DHT22;10008;48.682;9.016;2022-11-30T08:01:51;7.50;99.90
3406;DHT22;10008;48.682;9.016;2022-11-30T08:04:17;7.50;99.90
3406;DHT22;10008;48.682;9.016;2022-11-30T08:06:42;7.50;99.90
3406;DHT22;10008;48.682;9.016;2022-11-30T08:09:10;7.50;99.90
3406;DHT22;10008;48.682;9.016;2022-11-30T08:11:37;7.50;99.90
3406;DHT22;10008;48.682;9.016;2022-11-30T08:14:04;7.40;99.90
3406;DHT22;10008;48.682;9.016;2022-11-30T08:16:33;7.20;99.90
3406;DHT22;10008;48.682;9.016;2022-11-30T08:18:59;7.20;99.90
3406;DHT22;10008;48.682;9.016;2022-11-30T08:21:25;7.20;99.90
3406;DHT22;10008;48.682;9.016;2022-11-30T08:23:53;7.20;99.90
3406;DHT22;10008;48.682;9.016;2022-11-30T08:26:23;7.30;99.90
3406;DHT22;10008;48.682;9.016;2022-11-30T08:28:50;7.40;99.90
3406;DHT22;10008;48.682;9.016;2022-11-30T08:31:22;7.30;99.90
3406;DHT22;10008;48.682;9.016;2022-11-30T08:33:49;7.30;99.90
3406;DHT22;10008;48.682;9.016;2022-11-30T08:36:19;7.20;99.90
3406;DHT22;10008;48.682;9.016;2022-11-30T08:38:46;7.20;99.90
3406;DHT22;10008;48.682;9.016;2022-11-30T08:41:14;7.20;99.90
3406;DHT22;10008;48.682;9.016;2022-11-30T08:43:41;7.20;99.90
3406;DHT22;10008;48.682;9.016;2022-11-30T08:46:12;7.30;99.90
3406;DHT22;10008;48.682;9.016;2022-11-30T08:48:38;7.30;99.90
3406;DHT22;10008;48.682;9.016;2022-11-30T08:51:06;7.30;99.90
3406;DHT22;10008;48.682;9.016;2022-11-30T08:53:32;7.20;99.90
3406;DHT22;10008;48.682;9.016;2022-11-30T08:56:02;7.20;99.90
3406;DHT22;10008;48.682;9.016;2022-11-30T08:58:30;7.30;99.90
3406;DHT22;10008;48.682;9.016;2022-11-30T09:01:17;7.40;99.90
3406;DHT22;10008;48.682;9.016;2022-11-30T09:03:44;7.50;99.90
3406;DHT22;10008;48.682;9.016;2022-11-30T09:06:13;7.50;99.90
3406;DHT22;10008;48.682;9.016;2022-11-30T09:08:40;7.60;99.90
3406;DHT22;10008;48.682;9.016;2022-11-30T09:11:25;7.60;99.90
3406;DHT22;10008;48.682;9.016;2022-11-30T09:13:54;7.60;99.90
3406;DHT22;10008;48.682;9.016;2022-11-30T09:16:20;7.70;99.90
3406;DHT22;10008;48.682;9.016;2022-11-30T09:18:48;7.90;99.90
3406;DHT22;10008;48.682;9.016;2022-11-30T09:21:16;8.10;99.90
3406;DHT22;10008;48.682;9.016;2022-11-30T09:23:47;8.50;99.90
3406;DHT22;10008;48.682;9.016;2022-11-30T09:26:16;8.20;99.90
3406;DHT22;10008;48.682;9.016;2022-11-30T09:28:44;8.20;99.90
3406;DHT22;10008;48.682;9.016;2022-11-30T09:31:12;8.30;99.90
3406;DHT22;10008;48.682;9.016;2022-11-30T09:33:38;8.20;99.90
3406;DHT22;10008;48.682;9.016;2022-11-30T09:36:07;8.30;99.90
3406;DHT22;10008;48.682;9.016;2022-11-30T09:38:34;8.30;99.90
3406;DHT22;10008;48.682;9.016;2022-11-30T09:46:41;8.10;99.90
3406;DHT22;10008;48.682;9.016;2022-11-30T09:49:14;7.90;99.90
3406;DHT22;10008;48.682;9.016;2022-11-30T09:51:46;7.90;99.90
3406;DHT22;10008;48.682;9.016;2022-11-30T09:56:45;7.80;99.90
3406;DHT22;10008;48.682;9.016;2022-11-30T09:59:29;7.80;99.90
3406;DHT22;10008;48.682;9.016;2022-11-30T10:02:01;7.80;99.90
3406;DHT22;10008;48.682;9.016;2022-11-30T10:04:31;8.00;99.90
3406;DHT22;10008;48.682;9.016;2022-11-30T10:10:06;8.70;99.90
3406;DHT22;10008;48.682;9.016;2022-11-30T10:15:44;8.30;99.90
3406;DHT22;10008;48.682;9.016;2022-11-30T10:23:59;8.40;99.90
3406;DHT22;10008;48.682;9.016;2022-11-30T10:26:34;8.30;99.90
3406;DHT22;10008;48.682;9.016;2022-11-30T10:29:35;8.40;99.90
3406;DHT22;10008;48.682;9.016;2022-11-30T10:32:30;8.40;99.90
3406;DHT22;10008;48.682;9.016;2022-11-30T10:35:48;8.20;99.90
3406;DHT22;10008;48.682;9.016;2022-11-30T10:38:21;8.30;99.90
3406;DHT22;10008;48.682;9.016;2022-11-30T10:45:54;8.20;99.90
3406;DHT22;10008;48.682;9.016;2022-11-30T10:48:27;8.40;99.90
3406;DHT22;10008;48.682;9.016;2022-11-30T10:50:58;8.40;99.90
3406;DHT22;10008;48.682;9.016;2022-11-30T10:53:25;8.50;99.90
3406;DHT22;10008;48.682;9.016;2022-11-30T10:56:12;8.50;99.90
3406;DHT22;10008;48.682;9.016;2022-11-30T10:58:52;8.70;99.90
3406;DHT22;10008;48.682;9.016;2022-11-30T11:01:38;8.70;99.90
3406;DHT22;10008;48.682;9.016;2022-11-30T11:06:58;9.00;99.90
3406;DHT22;10008;48.682;9.016;2022-11-30T11:12:05;9.00;99.90
3406;DHT22;10008;48.682;9.016;2022-11-30T11:14:31;9.00;99.90
3406;DHT22;10008;48.682;9.016;2022-11-30T11:17:00;8.90;99.90
3406;DHT22;10008;48.682;9.016;2022-11-30T11:19:48;8.80;99.90
3406;DHT22;10008;48.682;9.016;2022-11-30T11:22:28;8.70;99.90
3406;DHT22;10008;48.682;9.016;2022-11-30T11:25:21;8.80;99.90
3406;DHT22;10008;48.682;9.016;2022-11-30T11:27:56;8.60;99.90
3406;DHT22;10008;48.682;9.016;2022-11-30T11:33:01;8.40;99.90
3406;DHT22;10008;48.682;9.016;2022-11-30T11:35:42;8.50;99.90
3406;DHT22;10008;48.682;9.016;2022-11-30T11:38:25;8.50;99.90
3406;DHT22;10008;48.682;9.016;2022-11-30T11:40:56;8.60;99.90
3406;DHT22;10008;48.682;9.016;2022-11-30T11:43:24;8.60;99.90
3406;DHT22;10008;48.682;9.016;2022-11-30T11:45:56;8.60;99.90
3406;DHT22;10008;48.682;9.016;2022-11-30T11:48:39;8.70;99.90
3406;DHT22;10008;48.682;9.016;2022-11-30T11:51:08;8.70;99.90
3406;DHT22;10008;48.682;9.016;2022-11-30T11:56:16;8.70;99.90
3406;DHT22;10008;48.682;9.016;2022-11-30T11:58:50;8.70;99.90
3406;DHT22;10008;48.682;9.016;2022-11-30T12:06:45;8.80;99.90
3406;DHT22;10008;48.682;9.016;2022-11-30T12:09:30;8.70;99.90
3406;DHT22;10008;48.682;9.016;2022-11-30T12:11:58;8.60;99.90
3406;DHT22;10008;48.682;9.016;2022-11-30T12:14:24;8.60;99.90
3406;DHT22;10008;48.682;9.016;2022-11-30T12:20:11;8.50;99.90
3406;DHT22;10008;48.682;9.016;2022-11-30T12:25:27;8.50;99.90
3406;DHT22;10008;48.682;9.016;2022-11-30T12:38:39;8.40;99.90
3406;DHT22;10008;48.682;9.016;2022-11-30T12:47:10;8.10;99.90
3406;DHT22;10008;48.682;9.016;2022-11-30T12:55:42;8.10;99.90
3406;DHT22;10008;48.682;9.016;2022-11-30T13:01:55;8.20;99.90
3406;DHT22;10008;48.682;9.016;2022-11-30T13:07:21;8.20;99.90
3406;DHT22;10008;48.682;9.016;2022-11-30T13:09:55;8.30;99.90
3406;DHT22;10008;48.682;9.016;2022-11-30T13:12:48;8.20;99.90
3406;DHT22;10008;48.682;9.016;2022-11-30T13:15:18;8.20;99.90
3406;DHT22;10008;48.682;9.016;2022-11-30T13:17:46;8.20;99.90
3406;DHT22;10008;48.682;9.016;2022-11-30T13:20:32;8.50;99.90
3406;DHT22;10008;48.682;9.016;2022-11-30T13:29:17;8.00;99.90
3406;DHT22;10008;48.682;9.016;2022-11-30T13:36:43;8.00;99.90
3406;DHT22;10008;48.682;9.016;2022-11-30T13:41:43;7.90;99.90
3406;DHT22;10008;48.682;9.016;2022-11-30T13:47:16;7.80;99.90
3406;DHT22;10008;48.682;9.016;2022-11-30T13:49:42;7.70;99.90
3406;DHT22;10008;48.682;9.016;2022-11-30T13:52:12;7.80;99.90
3406;DHT22;10008;48.682;9.016;2022-11-30T13:54:48;7.70;99.90
3406;DHT22;10008;48.682;9.016;2022-11-30T13:59:55;7.50;99.90
3406;DHT22;10008;48.682;9.016;2022-11-30T14:10:29;7.60;99.90
3406;DHT22;10008;48.682;9.016;2022-11-30T14:23:52;7.20;99.90
3406;DHT22;10008;48.682;9.016;2022-11-30T14:26:44;7.30;99.90
3406;DHT22;10008;48.682;9.016;2022-11-30T14:29:18;7.30;99.90
3406;DHT22;10008;48.682;9.016;2022-11-30T14:32:02;7.20;99.90
3406;DHT22;10008;48.682;9.016;2022-11-30T14:34:38;7.10;99.90
3406;DHT22;10008;48.682;9.016;2022-11-30T14:37:26;7.20;99.90
3406;DHT22;10008;48.682;9.016;2022-11-30T14:39:54;7.20;99.90
3406;DHT22;10008;48.682;9.016;2022-11-30T14:42:24;7.20;99.90
3406;DHT22;10008;48.682;9.016;2022-11-30T14:44:50;7.20;99.90
3406;DHT22;10008;48.682;9.016;2022-11-30T14:47:20;7.20;99.90
3406;DHT22;10008;48.682;9.016;2022-11-30T14:49:48;7.30;99.90
3406;DHT22;10008;48.682;9.016;2022-11-30T15:00:36;7.20;99.90
3406;DHT22;10008;48.682;9.016;2022-11-30T15:03:04;7.20;99.90
3406;DHT22;10008;48.682;9.016;2022-11-30T15:05:38;7.20;99.90
3406;DHT22;10008;48.682;9.016;2022-11-30T15:08:07;7.10;99.90
3406;DHT22;10008;48.682;9.016;2022-11-30T15:10:35;7.10;99.90
3406;DHT22;10008;48.682;9.016;2022-11-30T15:13:01;7.00;99.90
3406;DHT22;10008;48.682;9.016;2022-11-30T15:15:28;7.10;99.90
3406;DHT22;10008;48.682;9.016;2022-11-30T15:18:15;7.20;99.90
3406;DHT22;10008;48.682;9.016;2022-11-30T15:20:58;7.10;99.90
3406;DHT22;10008;48.682;9.016;2022-11-30T15:23:25;7.20;99.90
3406;DHT22;10008;48.682;9.016;2022-11-30T15:25:55;7.20;99.90
3406;DHT22;10008;48.682;9.016;2022-11-30T15:28:25;7.20;99.90
3406;DHT22;10008;48.682;9.016;2022-11-30T15:30:55;7.10;99.90
3406;DHT22;10008;48.682;9.016;2022-11-30T15:33:28;7.10;99.90
3406;DHT22;10008;48.682;9.016;2022-11-30T15:35:56;7.00;99.90
3406;DHT22;10008;48.682;9.016;2022-11-30T15:38:26;7.10;99.90
3406;DHT22;10008;48.682;9.016;2022-11-30T15:41:00;7.10;99.90
3406;DHT22;10008;48.682;9.016;2022-11-30T15:43:27;7.00;99.90
3406;DHT22;10008;48.682;9.016;2022-11-30T15:45:57;7.00;99.90
3406;DHT22;10008;48.682;9.016;2022-11-30T15:48:46;7.00;99.90
3406;DHT22;10008;48.682;9.016;2022-11-30T15:51:22;7.10;99.90
3406;DHT22;10008;48.682;9.016;2022-11-30T15:53:49;7.00;99.90
3406;DHT22;10008;48.682;9.016;2022-11-30T15:56:24;7.00;99.90
3406;DHT22;10008;48.682;9.016;2022-11-30T15:59:03;7.00;99.90
3406;DHT22;10008;48.682;9.016;2022-11-30T16:01:36;7.00;99.90
3406;DHT22;10008;48.682;9.016;2022-11-30T16:04:26;6.90;99.90
3406;DHT22;10008;48.682;9.016;2022-11-30T16:06:52;6.90;99.90
3406;DHT22;10008;48.682;9.016;2022-11-30T16:09:24;6.90;99.90
3406;DHT22;10008;48.682;9.016;2022-11-30T16:11:54;6.90;99.90
3406;DHT22;10008;48.682;9.016;2022-11-30T16:14:22;6.80;99.90
3406;DHT22;10008;48.682;9.016;2022-11-30T16:16:48;6.80;99.90
3406;DHT22;10008;48.682;9.016;2022-11-30T16:19:14;6.80;99.90
3406;DHT22;10008;48.682;9.016;2022-11-30T16:21:40;6.80;99.90
3406;DHT22;10008;48.682;9.016;2022-11-30T16:24:11;6.80;99.90
3406;DHT22;10008;48.682;9.016;2022-11-30T16:26:37;6.80;99.90
3406;DHT22;10008;48.682;9.016;2022-11-30T16:29:03;6.90;99.90
3406;DHT22;10008;48.682;9.016;2022-11-30T16:31:29;6.90;99.90
3406;DHT22;10008;48.682;9.016;2022-11-30T16:33:55;6.90;99.90
3406;DHT22;10008;48.682;9.016;2022-11-30T16:36:21;6.90;99.90
3406;DHT22;10008;48.682;9.016;2022-11-30T16:38:51;7.00;99.90
3406;DHT22;10008;48.682;9.016;2022-11-30T16:41:22;6.90;99.90
3406;DHT22;10008;48.682;9.016;2022-11-30T16:43:50;7.00;99.90
3406;DHT22;10008;48.682;9.016;2022-11-30T16:46:19;6.90;99.90
3406;DHT22;10008;48.682;9.016;2022-11-30T16:48:45;6.90;99.90
3406;DHT22;10008;48.682;9.016;2022-11-30T16:51:24;6.90;99.90
3406;DHT22;10008;48.682;9.016;2022-11-30T16:53:50;6.90;99.90
3406;DHT22;10008;48.682;9.016;2022-11-30T16:56:16;6.90;99.90
3406;DHT22;10008;48.682;9.016;2022-11-30T16:58:42;6.80;99.90
3406;DHT22;10008;48.682;9.016;2022-11-30T17:01:30;6.70;99.90
3406;DHT22;10008;48.682;9.016;2022-11-30T17:03:57;6.70;99.90
3406;DHT22;10008;48.682;9.016;2022-11-30T17:06:23;6.70;99.90
3406;DHT22;10008;48.682;9.016;2022-11-30T17:08:51;6.70;99.90
3406;DHT22;10008;48.682;9.016;2022-11-30T17:11:32;6.70;99.90
3406;DHT22;10008;48.682;9.016;2022-11-30T17:13:58;6.70;99.90
3406;DHT22;10008;48.682;9.016;2022-11-30T17:16:24;6.70;99.90
3406;DHT22;10008;48.682;9.016;2022-11-30T17:18:50;6.70;99.90
3406;DHT22;10008;48.682;9.016;2022-11-30T17:21:20;6.70;99.90
3406;DHT22;10008;48.682;9.016;2022-11-30T17:23:48;6.60;99.90
3406;DHT22;10008;48.682;9.016;2022-11-30T17:26:14;6.60;99.90
3406;DHT22;10008;48.682;9.016;2022-11-30T17:28:40;6.60;99.90
3406;DHT22;10008;48.682;9.016;2022-11-30T17:31:07;6.60;99.90
3406;DHT22;10008;48.682;9.016;2022-11-30T17:33:35;6.70;99.90
3406;DHT22;10008;48.682;9.016;2022-11-30T17:36:03;7.50;99.90
3406;DHT22;10008;48.682;9.016;2022-11-30T17:38:30;6.60;99.90
3406;DHT22;10008;48.682;9.016;2022-11-30T17:40:56;6.60;99.90
3406;DHT22;10008;48.682;9.016;2022-11-30T17:43:22;6.60;99.90
3406;DHT22;10008;48.682;9.016;2022-11-30T17:45:48;6.60;99.90
3406;DHT22;10008;48.682;9.016;2022-11-30T17:48:14;6.60;99.90
3406;DHT22;10008;48.682;9.016;2022-11-30T17:50:42;6.60;99.90
3406;DHT22;10008;48.682;9.016;2022-11-30T17:53:09;6.60;99.90
3406;DHT22;10008;48.682;9.016;2022-11-30T17:55:35;6.50;99.90
3406;DHT22;10008;48.682;9.016;2022-11-30T17:58:01;6.50;99.90
3406;DHT22;10008;48.682;9.016;2022-11-30T18:00:27;6.50;99.90
3406;DHT22;10008;48.682;9.016;2022-11-30T18:02:53;6.50;99.90
3406;DHT22;10008;48.682;9.016;2022-11-30T18:05:19;6.50;99.90
3406;DHT22;10008;48.682;9.016;2022-11-30T18:07:46;6.50;99.90
3406;DHT22;10008;48.682;9.016;2022-11-30T18:10:12;6.50;99.90
3406;DHT22;10008;48.682;9.016;2022-11-30T18:12:38;6.60;99.90
3406;DHT22;10008;48.682;9.016;2022-11-30T18:15:05;6.60;99.90
3406;DHT22;10008;48.682;9.016;2022-11-30T18:17:31;6.60;99.90
3406;DHT22;10008;48.682;9.016;2022-11-30T18:19:57;6.60;99.90
3406;DHT22;10008;48.682;9.016;2022-11-30T18:22:23;6.60;99.90
3406;DHT22;10008;48.682;9.016;2022-11-30T18:24:48;6.90;99.90
3406;DHT22;10008;48.682;9.016;2022-11-30T18:27:14;6.60;99.90
3406;DHT22;10008;48.682;9.016;2022-11-30T18:29:40;6.60;99.90